createdAt,value
2022-08-26T00:00:16.916Z,5.47
2022-08-26T00:02:45.383Z,4.95
2022-08-26T00:05:13.653Z,4.53
2022-08-26T00:07:42.005Z,5.10
2022-08-26T00:10:12.176Z,4.38
2022-08-26T00:12:40.696Z,4.72
2022-08-26T00:15:12.485Z,5.05
2022-08-26T00:17:42.254Z,4.53
2022-08-26T00:20:11.438Z,4.57
2022-08-26T00:22:39.567Z,4.90
2022-08-26T00:25:09.360Z,5.10
2022-08-26T00:27:38.344Z,4.78
2022-08-26T00:30:11.590Z,4.25
2022-08-26T00:32:41.365Z,4.45
2022-08-26T00:35:13.225Z,4.60
2022-08-26T00:37:43.433Z,4.60
2022-08-26T00:40:16.532Z,4.07
2022-08-26T00:42:45.895Z,4.70
2022-08-26T00:45:15.324Z,4.53
2022-08-26T00:47:49.275Z,5.25
2022-08-26T00:50:23.101Z,5.55
2022-08-26T00:52:52.282Z,4.78
2022-08-26T00:55:23.277Z,4.82
2022-08-26T00:57:53.064Z,5.55
2022-08-26T01:01:15.020Z,5.50
2022-08-26T01:03:49.753Z,5.32
2022-08-26T01:06:20.853Z,5.57
2022-08-26T01:08:49.408Z,5.65
2022-08-26T01:11:17.553Z,5.25
2022-08-26T01:13:47.603Z,4.95
2022-08-26T01:16:17.446Z,5.53
2022-08-26T01:18:47.779Z,5.55
2022-08-26T01:21:22.850Z,5.10
2022-08-26T01:23:57.682Z,5.15
2022-08-26T01:26:29.083Z,6.13
2022-08-26T01:29:00.347Z,5.60
2022-08-26T01:31:31.805Z,6.53
2022-08-26T01:34:06.083Z,5.07
2022-08-26T01:36:34.406Z,5.72
2022-08-26T01:39:05.912Z,5.80
2022-08-26T01:41:36.600Z,5.90
2022-08-26T01:44:07.934Z,5.55
2022-08-26T01:46:38.479Z,5.97
2022-08-26T01:49:09.441Z,6.00
2022-08-26T01:51:40.387Z,6.50
2022-08-26T01:54:11.816Z,6.05
2022-08-26T01:56:40.716Z,5.90
2022-08-26T01:59:12.443Z,6.40
2022-08-26T02:01:42.036Z,6.45
2022-08-26T02:04:17.024Z,7.05
2022-08-26T02:09:16.591Z,5.90
2022-08-26T02:11:45.222Z,6.65
2022-08-26T02:14:17.571Z,6.63
2022-08-26T02:16:47.987Z,6.22
2022-08-26T02:19:21.563Z,6.07
2022-08-26T02:24:23.547Z,6.30
2022-08-26T02:26:52.318Z,6.03
2022-08-26T02:29:25.944Z,6.47
2022-08-26T02:31:55.798Z,6.40
2022-08-26T02:34:31.362Z,6.85
2022-08-26T02:37:00.166Z,6.47
2022-08-26T02:39:29.816Z,6.57
2022-08-26T02:41:58.356Z,6.10
2022-08-26T02:44:27.393Z,5.95
2022-08-26T02:46:56.585Z,6.32
2022-08-26T02:49:25.410Z,6.78
2022-08-26T02:51:54.295Z,6.20
2022-08-26T02:54:22.881Z,6.20
2022-08-26T02:56:52.812Z,5.68
2022-08-26T02:59:24.255Z,6.53
2022-08-26T03:01:56.052Z,6.20
2022-08-26T03:04:25.745Z,6.18
2022-08-26T03:06:55.580Z,5.95
2022-08-26T03:09:24.133Z,6.05
2022-08-26T03:11:55.520Z,6.57
2022-08-26T03:14:24.917Z,5.63
2022-08-26T03:16:54.504Z,5.82
2022-08-26T03:19:24.130Z,5.97
2022-08-26T03:21:53.047Z,6.43
2022-08-26T03:24:26.819Z,6.93
2022-08-26T03:26:56.335Z,6.20
2022-08-26T03:29:43.947Z,6.90
2022-08-26T03:32:21.603Z,7.63
2022-08-26T03:34:49.680Z,7.88
2022-08-26T03:37:17.714Z,7.68
2022-08-26T03:39:46.534Z,7.45
2022-08-26T03:42:16.157Z,6.85
2022-08-26T03:44:44.394Z,7.15
2022-08-26T03:47:12.662Z,6.75
2022-08-26T03:49:41.914Z,7.07
2022-08-26T03:52:10.628Z,6.93
2022-08-26T03:54:38.848Z,6.30
2022-08-26T03:57:08.718Z,7.45
2022-08-26T03:59:38.218Z,7.22
2022-08-26T04:02:11.772Z,6.93
2022-08-26T04:04:40.392Z,7.35
2022-08-26T04:07:08.650Z,6.93
2022-08-26T04:09:36.929Z,6.80
2022-08-26T04:12:05.942Z,6.68
2022-08-26T04:14:35.483Z,6.80
2022-08-26T04:17:07.369Z,6.85
2022-08-26T04:19:36.007Z,6.30
2022-08-26T04:22:04.049Z,6.53
2022-08-26T04:24:33.004Z,7.63
2022-08-26T04:27:02.613Z,6.32
2022-08-26T04:29:31.236Z,7.20
2022-08-26T04:31:59.630Z,6.85
2022-08-26T04:34:29.611Z,7.03
2022-08-26T04:36:58.290Z,7.72
2022-08-26T04:39:27.643Z,7.43
2022-08-26T04:41:57.757Z,7.63
2022-08-26T04:44:28.627Z,8.05
2022-08-26T04:46:57.863Z,7.47
2022-08-26T04:49:26.237Z,7.47
2022-08-26T04:51:57.149Z,7.10
2022-08-26T04:54:26.246Z,7.40
2022-08-26T04:56:54.451Z,7.40
2022-08-26T04:59:22.850Z,7.35
2022-08-26T05:01:56.465Z,7.00
2022-08-26T05:04:24.694Z,7.28
2022-08-26T05:06:56.756Z,7.40
2022-08-26T05:09:29.285Z,7.75
2022-08-26T05:11:58.680Z,7.13
2022-08-26T05:14:26.788Z,7.03
2022-08-26T05:16:55.850Z,6.70
2022-08-26T05:19:24.865Z,6.50
2022-08-26T05:21:56.097Z,7.00
2022-08-26T05:24:24.716Z,6.53
2022-08-26T05:26:54.538Z,6.90
2022-08-26T05:29:25.190Z,8.05
2022-08-26T05:31:53.857Z,7.30
2022-08-26T05:34:24.355Z,7.50
2022-08-26T05:36:58.398Z,7.13
2022-08-26T05:39:26.528Z,8.43
2022-08-26T05:41:55.926Z,8.00
2022-08-26T05:44:24.845Z,7.22
2022-08-26T05:46:53.237Z,7.20
2022-08-26T05:49:22.570Z,6.93
2022-08-26T05:51:54.555Z,6.90
2022-08-26T05:54:22.711Z,6.53
2022-08-26T05:56:51.540Z,6.13
2022-08-26T05:59:23.981Z,6.30
2022-08-26T06:01:53.421Z,6.15
2022-08-26T06:04:22.487Z,5.97
2022-08-26T06:06:55.007Z,6.40
2022-08-26T06:09:23.138Z,5.38
2022-08-26T06:11:51.882Z,5.50
2022-08-26T06:14:23.165Z,5.90
2022-08-26T06:16:51.303Z,4.90
2022-08-26T06:19:20.171Z,4.32
2022-08-26T06:21:54.719Z,4.82
2022-08-26T06:24:40.499Z,4.55
2022-08-26T06:27:11.461Z,4.40
2022-08-26T06:29:42.698Z,4.22
2022-08-26T06:32:10.882Z,4.10
2022-08-26T06:34:39.065Z,4.43
2022-08-26T06:37:07.312Z,4.25
2022-08-26T06:39:35.707Z,4.13
2022-08-26T06:42:09.292Z,3.75
2022-08-26T06:44:40.955Z,4.20
2022-08-26T06:47:11.659Z,4.05
2022-08-26T06:49:41.801Z,3.65
2022-08-26T06:52:14.411Z,4.28
2022-08-26T06:54:48.028Z,3.80
2022-08-26T06:57:18.230Z,3.85
2022-08-26T06:59:46.394Z,4.13
2022-08-26T07:02:16.372Z,3.85
2022-08-26T07:04:47.930Z,4.03
2022-08-26T07:07:16.308Z,4.18
2022-08-26T07:09:44.422Z,3.85
2022-08-26T07:12:12.543Z,4.32
2022-08-26T07:14:41.394Z,4.28
2022-08-26T07:17:20.907Z,3.80
2022-08-26T07:19:53.714Z,3.75
2022-08-26T07:22:21.866Z,3.42
2022-08-26T07:24:50.078Z,3.60
2022-08-26T07:27:18.763Z,4.03
2022-08-26T07:29:49.895Z,3.33
2022-08-26T07:32:22.990Z,3.58
2022-08-26T07:34:53.335Z,3.17
2022-08-26T07:37:21.491Z,3.35
2022-08-26T07:39:52.133Z,3.47
2022-08-26T07:42:23.269Z,3.28
2022-08-26T07:44:52.181Z,2.58
2022-08-26T07:47:24.984Z,2.92
2022-08-26T07:49:57.881Z,3.33
2022-08-26T07:52:28.993Z,3.42
2022-08-26T07:54:58.388Z,3.53
2022-08-26T07:57:26.935Z,2.88
2022-08-26T07:59:55.793Z,3.17
2022-08-26T08:02:26.236Z,3.42
2022-08-26T08:04:56.928Z,3.33
2022-08-26T08:07:38.628Z,4.50
2022-08-26T08:10:16.355Z,3.42
2022-08-26T08:12:44.806Z,3.45
2022-08-26T08:15:21.382Z,3.35
2022-08-26T08:17:51.650Z,2.92
2022-08-26T08:20:25.820Z,3.00
2022-08-26T08:22:55.297Z,3.30
2022-08-26T08:25:25.823Z,2.92
2022-08-26T08:27:54.052Z,3.03
2022-08-26T08:30:23.460Z,3.40
2022-08-26T08:32:51.868Z,3.35
2022-08-26T08:35:22.550Z,3.30
2022-08-26T08:37:54.521Z,3.00
2022-08-26T08:40:25.253Z,3.10
2022-08-26T08:42:58.285Z,3.28
2022-08-26T08:45:36.643Z,3.03
2022-08-26T08:48:11.017Z,3.83
2022-08-26T08:50:44.690Z,3.20
2022-08-26T08:53:19.008Z,3.15
2022-08-26T08:55:59.453Z,3.67
2022-08-26T08:58:36.555Z,3.63
2022-08-26T09:01:09.781Z,3.40
2022-08-26T09:03:52.627Z,3.25
2022-08-26T09:06:21.515Z,3.50
2022-08-26T09:08:56.550Z,3.28
2022-08-26T09:11:24.716Z,2.97
2022-08-26T09:13:55.616Z,2.92
2022-08-26T09:16:34.080Z,3.17
2022-08-26T09:19:14.338Z,3.03
2022-08-26T09:21:42.551Z,2.83
2022-08-26T09:24:13.994Z,3.17
2022-08-26T09:26:48.470Z,3.00
2022-08-26T09:29:24.541Z,3.55
2022-08-26T09:34:58.077Z,3.17
2022-08-26T09:37:36.697Z,2.90
2022-08-26T09:40:22.606Z,3.08
2022-08-26T09:43:08.836Z,3.72
2022-08-26T09:45:38.805Z,3.05
2022-08-26T09:48:09.055Z,3.60
2022-08-26T09:50:53.205Z,2.90
2022-08-26T09:53:28.819Z,3.67
2022-08-26T09:56:19.786Z,3.13
2022-08-26T09:58:49.322Z,3.40
2022-08-26T10:01:33.314Z,3.28
2022-08-26T10:04:07.770Z,3.05
2022-08-26T10:06:40.027Z,2.72
2022-08-26T10:09:14.605Z,3.20
2022-08-26T10:11:49.683Z,2.95
2022-08-26T10:14:25.105Z,3.40
2022-08-26T10:17:03.410Z,4.05
2022-08-26T10:19:41.333Z,3.05
2022-08-26T10:22:19.809Z,3.22
2022-08-26T10:24:54.942Z,3.05
2022-08-26T10:27:31.596Z,2.90
2022-08-26T10:30:11.209Z,3.40
2022-08-26T10:32:42.692Z,2.70
2022-08-26T10:35:18.344Z,3.15
2022-08-26T10:38:14.526Z,2.78
2022-08-26T10:40:55.213Z,2.80
2022-08-26T10:43:33.347Z,3.03
2022-08-26T10:46:07.478Z,3.15
2022-08-26T10:48:42.828Z,3.35
2022-08-26T10:51:14.674Z,2.78
2022-08-26T10:53:55.935Z,3.28
2022-08-26T10:56:44.819Z,3.85
2022-08-26T10:59:28.948Z,2.95
2022-08-26T11:02:10.297Z,2.80
2022-08-26T11:04:48.442Z,2.95
2022-08-26T11:07:43.766Z,3.45
2022-08-26T11:11:04.189Z,2.95
2022-08-26T11:14:05.654Z,3.17
2022-08-26T11:16:43.331Z,2.92
2022-08-26T11:19:13.533Z,2.55
2022-08-26T11:21:51.110Z,2.85
2022-08-26T11:25:01.615Z,2.60
2022-08-26T11:28:04.438Z,2.70
2022-08-26T11:30:58.302Z,2.60
2022-08-26T11:33:59.881Z,3.53
2022-08-26T11:36:42.114Z,3.03
2022-08-26T11:39:20.451Z,2.72
2022-08-26T11:41:53.614Z,2.70
2022-08-26T11:44:24.182Z,2.92
2022-08-26T11:47:03.588Z,3.08
2022-08-26T11:49:35.042Z,3.47
2022-08-26T11:52:12.240Z,3.78
2022-08-26T11:54:40.863Z,3.20
2022-08-26T11:57:14.723Z,2.95
2022-08-26T11:59:43.570Z,3.25
2022-08-26T12:02:17.947Z,3.10
2022-08-26T12:04:53.040Z,3.17
2022-08-26T12:07:27.133Z,2.40
2022-08-26T12:10:00.439Z,2.72
2022-08-26T12:12:35.272Z,3.33
2022-08-26T12:15:17.489Z,2.50
2022-08-26T12:17:52.962Z,2.83
2022-08-26T12:20:46.116Z,3.05
2022-08-26T12:23:41.415Z,2.67
2022-08-26T12:26:41.356Z,2.70
2022-08-26T12:29:27.227Z,3.00
2022-08-26T12:32:09.134Z,2.58
2022-08-26T12:34:43.124Z,3.22
2022-08-26T12:37:15.442Z,2.80
2022-08-26T12:39:46.421Z,2.90
2022-08-26T12:42:41.403Z,2.60
2022-08-26T12:47:42.978Z,3.53
2022-08-26T12:50:19.540Z,2.92
2022-08-26T12:53:00.165Z,3.17
2022-08-26T12:55:43.965Z,2.72
2022-08-26T12:58:24.743Z,2.60
2022-08-26T13:00:57.014Z,3.58
2022-08-26T13:03:32.563Z,2.75
2022-08-26T13:06:28.104Z,2.53
2022-08-26T13:08:59.856Z,2.70
2022-08-26T13:11:29.864Z,3.20
2022-08-26T13:14:02.351Z,3.15
2022-08-26T13:16:40.840Z,2.58
2022-08-26T13:19:11.559Z,2.90
2022-08-26T13:21:45.010Z,2.70
2022-08-26T13:24:17.723Z,3.25
2022-08-26T13:26:49.167Z,2.80
2022-08-26T13:29:18.057Z,2.70
2022-08-26T13:32:01.969Z,2.80
2022-08-26T13:34:32.253Z,2.50
2022-08-26T13:37:01.509Z,2.35
2022-08-26T13:39:30.066Z,2.40
2022-08-26T13:41:58.481Z,2.92
2022-08-26T13:44:26.999Z,2.72
2022-08-26T13:46:55.891Z,3.25
2022-08-26T13:49:25.855Z,2.75
2022-08-26T13:51:54.575Z,3.00
2022-08-26T13:54:26.840Z,2.35
2022-08-26T13:56:56.486Z,2.53
2022-08-26T13:59:27.281Z,3.05
2022-08-26T14:01:55.731Z,2.70
2022-08-26T14:04:27.245Z,2.85
2022-08-26T14:06:55.847Z,2.65
2022-08-26T14:09:27.275Z,2.70
2022-08-26T14:12:00.977Z,2.55
2022-08-26T14:14:35.983Z,2.83
2022-08-26T14:17:04.471Z,2.77
2022-08-26T14:19:37.597Z,3.00
2022-08-26T14:22:06.301Z,2.50
2022-08-26T14:24:38.223Z,2.40
2022-08-26T14:27:07.242Z,2.53
2022-08-26T14:29:35.468Z,2.75
2022-08-26T14:32:15.583Z,2.50
2022-08-26T14:34:45.458Z,2.20
2022-08-26T14:37:15.400Z,2.67
2022-08-26T14:39:46.014Z,2.97
2022-08-26T14:42:21.082Z,3.10
2022-08-26T14:44:55.943Z,3.10
2022-08-26T14:47:24.567Z,2.67
2022-08-26T14:49:54.311Z,2.50
2022-08-26T14:52:22.656Z,2.78
2022-08-26T14:54:54.887Z,3.00
2022-08-26T14:57:24.924Z,2.53
2022-08-26T14:59:53.938Z,2.88
2022-08-26T15:02:33.249Z,2.67
2022-08-26T15:05:04.260Z,2.90
2022-08-26T15:07:33.072Z,3.80
2022-08-26T15:10:01.317Z,2.63
2022-08-26T15:12:31.507Z,2.85
2022-08-26T15:15:00.443Z,2.65
2022-08-26T15:17:33.675Z,2.55
2022-08-26T15:20:08.223Z,2.95
2022-08-26T15:22:42.494Z,3.53
2022-08-26T15:25:14.220Z,2.72
2022-08-26T15:27:42.701Z,2.50
2022-08-26T15:30:14.101Z,2.60
2022-08-26T15:32:43.910Z,2.95
2022-08-26T15:35:14.457Z,2.45
2022-08-26T15:37:42.948Z,3.05
2022-08-26T15:40:22.062Z,2.40
2022-08-26T15:43:01.187Z,2.83
2022-08-26T15:45:39.746Z,2.70
2022-08-26T15:48:07.906Z,2.58
2022-08-26T15:50:49.953Z,2.85
2022-08-26T15:53:18.269Z,3.70
2022-08-26T15:55:46.644Z,2.65
2022-08-26T15:58:16.967Z,3.03
2022-08-26T16:00:46.713Z,2.80
2022-08-26T16:03:21.181Z,2.72
2022-08-26T16:05:50.809Z,3.30
2022-08-26T16:08:20.335Z,3.05
2022-08-26T16:10:51.547Z,3.50
2022-08-26T16:13:22.217Z,2.70
2022-08-26T16:15:54.886Z,3.35
2022-08-26T16:18:24.553Z,3.25
2022-08-26T16:21:12.644Z,2.88
2022-08-26T16:23:45.358Z,2.95
2022-08-26T16:26:19.597Z,3.20
2022-08-26T16:28:49.765Z,3.05
2022-08-26T16:31:18.560Z,2.53
2022-08-26T16:33:47.413Z,3.75
2022-08-26T16:36:18.003Z,3.42
2022-08-26T16:38:50.344Z,3.22
2022-08-26T16:41:20.070Z,3.00
2022-08-26T16:43:48.981Z,3.03
2022-08-26T16:46:19.172Z,3.38
2022-08-26T16:48:48.950Z,3.30
2022-08-26T16:51:23.116Z,2.55
2022-08-26T16:53:57.841Z,3.88
2022-08-26T16:59:03.505Z,2.75
2022-08-26T17:01:33.474Z,2.60
2022-08-26T17:04:01.824Z,3.40
2022-08-26T17:06:31.823Z,2.70
2022-08-26T17:09:00.186Z,3.17
2022-08-26T17:11:28.705Z,3.15
2022-08-26T17:13:57.208Z,3.20
2022-08-26T17:16:27.123Z,2.55
2022-08-26T17:18:57.430Z,2.88
2022-08-26T17:21:26.999Z,2.97
2022-08-26T17:23:56.699Z,3.72
2022-08-26T17:26:24.847Z,3.05
2022-08-26T17:28:53.075Z,2.83
2022-08-26T17:31:22.058Z,2.78
2022-08-26T17:33:53.886Z,3.38
2022-08-26T17:36:27.794Z,3.05
2022-08-26T17:39:00.218Z,3.65
2022-08-26T17:41:30.111Z,3.25
2022-08-26T17:43:58.562Z,4.00
2022-08-26T17:46:26.997Z,3.47
2022-08-26T17:48:55.473Z,3.60
2022-08-26T17:51:25.706Z,4.90
2022-08-26T17:53:54.276Z,3.63
2022-08-26T17:56:26.815Z,3.40
2022-08-26T17:58:57.025Z,3.95
2022-08-26T18:01:27.654Z,4.13
2022-08-26T18:04:00.373Z,4.20
2022-08-26T18:06:30.531Z,3.33
2022-08-26T18:09:00.625Z,3.30
2022-08-26T18:11:31.312Z,3.15
2022-08-26T18:14:00.389Z,3.72
2022-08-26T18:16:32.015Z,3.13
2022-08-26T18:19:01.140Z,2.97
2022-08-26T18:21:29.412Z,3.38
2022-08-26T18:23:59.183Z,3.35
2022-08-26T18:26:31.233Z,3.40
2022-08-26T18:28:59.931Z,3.35
2022-08-26T18:31:33.553Z,3.10
2022-08-26T18:34:03.099Z,2.60
2022-08-26T18:36:33.843Z,2.95
2022-08-26T18:39:02.796Z,3.20
2022-08-26T18:41:34.827Z,3.33
2022-08-26T18:44:03.595Z,2.97
2022-08-26T18:46:31.962Z,3.30
2022-08-26T18:49:00.257Z,3.25
2022-08-26T18:51:35.325Z,3.78
2022-08-26T18:54:05.931Z,3.20
2022-08-26T18:56:37.634Z,4.88
2022-08-26T18:59:08.856Z,3.20
2022-08-26T19:01:40.875Z,2.88
2022-08-26T19:04:15.626Z,2.85
2022-08-26T19:06:46.385Z,3.38
2022-08-26T19:09:15.326Z,3.65
2022-08-26T19:11:49.815Z,3.20
2022-08-26T19:14:18.591Z,3.63
2022-08-26T19:16:48.654Z,3.22
2022-08-26T19:19:18.037Z,3.20
2022-08-26T19:21:47.422Z,3.28
2022-08-26T19:24:18.079Z,3.22
2022-08-26T19:26:50.385Z,3.00
2022-08-26T19:29:27.617Z,3.53
2022-08-26T19:31:56.851Z,3.17
2022-08-26T19:34:25.225Z,3.35
2022-08-26T19:36:55.139Z,3.50
2022-08-26T19:39:23.923Z,3.05
2022-08-26T19:41:54.067Z,4.07
2022-08-26T19:44:42.111Z,3.10
2022-08-26T19:47:14.812Z,3.72
2022-08-26T19:49:43.474Z,3.42
2022-08-26T19:52:14.326Z,3.28
2022-08-26T19:54:42.903Z,3.55
2022-08-26T19:57:12.800Z,3.15
2022-08-26T19:59:43.933Z,3.33
2022-08-26T20:02:13.129Z,2.80
2022-08-26T20:04:42.378Z,3.40
2022-08-26T20:07:14.252Z,3.38
2022-08-26T20:09:46.879Z,2.92
2022-08-26T20:12:17.754Z,3.20
2022-08-26T20:14:50.312Z,2.78
2022-08-26T20:17:18.938Z,2.65
2022-08-26T20:20:05.059Z,3.15
2022-08-26T20:22:34.504Z,3.60
2022-08-26T20:25:03.186Z,3.20
2022-08-26T20:27:38.302Z,2.90
2022-08-26T20:30:09.561Z,3.10
2022-08-26T20:32:38.543Z,3.30
2022-08-26T20:35:08.866Z,3.83
2022-08-26T20:37:38.159Z,2.75
2022-08-26T20:40:08.685Z,2.92
2022-08-26T20:42:38.724Z,3.00
2022-08-26T20:45:08.759Z,3.65
2022-08-26T20:47:37.078Z,2.72
2022-08-26T20:50:06.342Z,3.60
2022-08-26T20:52:34.851Z,2.90
2022-08-26T20:55:03.105Z,3.10
2022-08-26T20:57:31.403Z,3.53
2022-08-26T21:00:01.196Z,3.33
2022-08-26T21:02:29.581Z,3.38
2022-08-26T21:04:57.854Z,2.90
2022-08-26T21:07:26.549Z,3.83
2022-08-26T21:09:54.732Z,5.00
2022-08-26T21:12:25.161Z,3.83
2022-08-26T21:14:53.573Z,3.35
2022-08-26T21:17:23.177Z,4.68
2022-08-26T21:19:51.639Z,3.28
2022-08-26T21:22:19.880Z,3.70
2022-08-26T21:24:48.397Z,3.80
2022-08-26T21:27:23.040Z,4.10
2022-08-26T21:29:54.828Z,4.00
2022-08-26T21:32:24.414Z,3.22
2022-08-26T21:34:56.487Z,4.00
2022-08-26T21:37:25.854Z,4.07
2022-08-26T21:39:54.777Z,3.80
2022-08-26T21:42:24.375Z,4.00
2022-08-26T21:44:53.521Z,3.95
2022-08-26T21:47:22.133Z,5.88
2022-08-26T21:49:52.202Z,4.00
2022-08-26T21:52:21.381Z,3.88
2022-08-26T21:54:49.986Z,3.47
2022-08-26T21:57:18.750Z,3.15
2022-08-26T21:59:47.245Z,4.00
2022-08-26T22:02:15.943Z,3.70
2022-08-26T22:04:48.208Z,3.85
2022-08-26T22:07:19.436Z,3.97
2022-08-26T22:09:47.906Z,3.72
2022-08-26T22:12:18.419Z,3.85
2022-08-26T22:14:48.252Z,3.83
2022-08-26T22:17:17.155Z,3.95
2022-08-26T22:19:46.095Z,3.85
2022-08-26T22:22:16.069Z,4.13
2022-08-26T22:24:45.751Z,3.90
2022-08-26T22:27:14.923Z,3.88
2022-08-26T22:29:43.231Z,3.50
2022-08-26T22:32:13.785Z,3.78
2022-08-26T22:34:43.139Z,3.70
2022-08-26T22:37:11.625Z,3.22
2022-08-26T22:39:39.907Z,3.40
2022-08-26T22:42:09.826Z,3.25
2022-08-26T22:44:38.216Z,3.55
2022-08-26T22:47:06.802Z,3.15
2022-08-26T22:49:35.102Z,3.40
2022-08-26T22:52:03.631Z,3.22
2022-08-26T22:54:31.901Z,3.38
2022-08-26T22:57:00.183Z,3.53
2022-08-26T22:59:29.920Z,3.60
2022-08-26T23:01:58.137Z,3.47
2022-08-26T23:04:26.408Z,3.65
2022-08-26T23:06:54.622Z,3.35
2022-08-26T23:09:22.907Z,3.97
2022-08-26T23:11:51.116Z,3.58
2022-08-26T23:14:20.423Z,4.40
2022-08-26T23:16:50.551Z,4.10
2022-08-26T23:19:20.971Z,3.53
2022-08-26T23:21:50.222Z,3.35
2022-08-26T23:24:19.091Z,3.13
2022-08-26T23:26:47.550Z,3.63
2022-08-26T23:29:16.521Z,4.03
2022-08-26T23:31:46.885Z,3.80
2022-08-26T23:34:33.865Z,3.85
2022-08-26T23:37:02.666Z,4.25
2022-08-26T23:39:34.060Z,3.30
2022-08-26T23:42:03.056Z,4.15
2022-08-26T23:44:31.826Z,3.85
2022-08-26T23:47:00.457Z,4.00
2022-08-26T23:49:30.523Z,4.13
2022-08-26T23:52:16.390Z,4.03
2022-08-26T23:57:12.865Z,3.47
2022-08-26T23:59:41.388Z,3.47
